createdAt,value
2023-05-09T00:01:39.944Z,37.72
2023-05-09T00:04:06.630Z,49.38
2023-05-09T00:06:33.521Z,52.95
2023-05-09T00:09:00.113Z,55.08
2023-05-09T00:11:27.019Z,56.04
2023-05-09T00:13:53.611Z,57.42
2023-05-09T00:16:20.630Z,57.83
2023-05-09T00:18:47.359Z,58.64
2023-05-09T00:21:13.896Z,59.68
2023-05-09T00:23:40.936Z,59.55
2023-05-09T00:26:07.626Z,58.57
2023-05-09T00:28:35.085Z,59.43
2023-05-09T00:31:01.625Z,60.14
2023-05-09T00:33:28.233Z,59.72
2023-05-09T00:35:55.004Z,60.02
2023-05-09T00:38:23.094Z,59.88
2023-05-09T00:40:49.637Z,60.17
2023-05-09T00:43:16.753Z,60.20
2023-05-09T00:45:45.169Z,60.24
2023-05-09T00:48:11.861Z,60.13
2023-05-09T00:50:38.376Z,60.08
2023-05-09T00:53:05.428Z,60.30
2023-05-09T00:55:32.227Z,60.42
2023-05-09T00:57:59.001Z,60.92
2023-05-09T01:00:25.807Z,60.23
2023-05-09T01:02:54.883Z,60.38
2023-05-09T01:05:24.892Z,60.11
2023-05-09T01:08:23.813Z,60.08
2023-05-09T01:11:10.713Z,60.00
2023-05-09T01:13:39.890Z,59.74
2023-05-09T01:16:18.341Z,59.94
2023-05-09T01:19:03.345Z,60.59
2023-05-09T01:21:32.296Z,61.16
2023-05-09T01:24:17.684Z,61.09
2023-05-09T01:27:15.183Z,61.32
2023-05-09T01:29:48.064Z,60.61
2023-05-09T01:32:19.338Z,61.36
2023-05-09T01:34:49.126Z,60.54
2023-05-09T01:37:17.773Z,61.18
2023-05-09T01:39:49.904Z,60.95
2023-05-09T01:42:20.276Z,60.10
2023-05-09T01:44:47.403Z,60.65
2023-05-09T01:47:16.442Z,60.01
2023-05-09T01:49:44.542Z,59.47
2023-05-09T01:52:15.032Z,59.83
2023-05-09T01:54:44.427Z,60.32
2023-05-09T01:57:12.910Z,60.75
2023-05-09T01:59:42.763Z,61.19
2023-05-09T02:02:10.253Z,61.11
2023-05-09T02:04:37.886Z,61.44
2023-05-09T02:07:06.120Z,61.21
2023-05-09T02:09:32.685Z,61.99
2023-05-09T02:11:59.319Z,61.50
2023-05-09T02:14:26.102Z,61.12
2023-05-09T02:16:54.126Z,60.46
2023-05-09T02:19:20.700Z,60.68
2023-05-09T02:21:47.837Z,61.38
2023-05-09T02:24:14.423Z,61.28
2023-05-09T02:26:41.411Z,61.22
2023-05-09T02:29:09.152Z,61.26
2023-05-09T02:31:36.538Z,61.43
2023-05-09T02:34:05.434Z,62.06
2023-05-09T02:36:32.634Z,61.79
2023-05-09T02:39:01.152Z,61.13
2023-05-09T02:41:29.979Z,61.75
2023-05-09T02:43:56.477Z,61.62
2023-05-09T02:46:23.172Z,61.43
2023-05-09T02:48:49.805Z,60.58
2023-05-09T02:51:16.364Z,61.53
2023-05-09T02:53:43.122Z,61.63
2023-05-09T02:56:10.787Z,61.35
2023-05-09T02:58:38.466Z,61.64
2023-05-09T03:01:05.236Z,61.54
2023-05-09T03:03:34.003Z,61.49
2023-05-09T03:06:02.700Z,61.56
2023-05-09T03:08:29.174Z,61.38
2023-05-09T03:10:55.758Z,61.21
2023-05-09T03:13:22.313Z,61.43
2023-05-09T03:15:49.030Z,61.74
2023-05-09T03:18:15.651Z,61.51
2023-05-09T03:20:42.158Z,61.81
2023-05-09T03:23:09.982Z,61.45
2023-05-09T03:25:36.615Z,62.18
2023-05-09T03:28:03.113Z,62.20
2023-05-09T03:30:29.798Z,62.05
2023-05-09T03:32:57.362Z,62.61
2023-05-09T03:35:24.031Z,62.11
2023-05-09T03:37:50.550Z,62.08
2023-05-09T03:40:17.233Z,61.93
2023-05-09T03:42:49.913Z,61.49
2023-05-09T03:45:16.497Z,61.47
2023-05-09T03:47:46.067Z,60.72
2023-05-09T03:50:13.130Z,61.05
2023-05-09T03:52:40.030Z,60.41
2023-05-09T03:55:07.247Z,60.86
2023-05-09T03:57:35.883Z,60.53
2023-05-09T04:00:04.836Z,60.42
2023-05-09T04:02:41.244Z,60.19
2023-05-09T04:05:11.656Z,60.11
2023-05-09T04:07:38.318Z,60.29
2023-05-09T04:10:06.268Z,60.73
2023-05-09T04:12:32.822Z,61.20
2023-05-09T04:14:59.470Z,61.24
2023-05-09T04:17:27.046Z,61.35
2023-05-09T04:19:53.924Z,60.88
2023-05-09T04:22:20.590Z,61.41
2023-05-09T04:24:47.650Z,61.04
2023-05-09T04:27:14.201Z,60.81
2023-05-09T04:29:41.869Z,61.05
2023-05-09T04:32:09.116Z,61.58
2023-05-09T04:34:36.089Z,61.18
2023-05-09T04:37:09.112Z,61.95
2023-05-09T04:39:35.827Z,62.29
2023-05-09T04:42:11.481Z,62.99
2023-05-09T04:44:38.183Z,63.03
2023-05-09T04:47:04.852Z,63.33
2023-05-09T04:49:31.650Z,62.03
2023-05-09T04:51:58.233Z,62.91
2023-05-09T04:54:25.807Z,62.98
2023-05-09T04:57:00.316Z,62.38
2023-05-09T04:59:35.553Z,61.87
2023-05-09T05:02:03.251Z,62.17
2023-05-09T05:04:30.445Z,61.56
2023-05-09T05:06:57.261Z,61.66
2023-05-09T05:09:24.181Z,62.25
2023-05-09T05:12:00.863Z,62.04
2023-05-09T05:14:30.018Z,61.50
2023-05-09T05:16:56.881Z,61.30
2023-05-09T05:19:24.144Z,61.64
2023-05-09T05:21:50.795Z,60.98
2023-05-09T05:24:17.603Z,60.84
2023-05-09T05:26:45.424Z,61.44
2023-05-09T05:29:12.393Z,61.23
2023-05-09T05:31:38.942Z,62.23
2023-05-09T05:34:05.610Z,62.21
2023-05-09T05:36:32.809Z,63.02
2023-05-09T05:38:59.476Z,63.75
2023-05-09T05:41:26.214Z,64.26
2023-05-09T05:43:54.499Z,66.11
2023-05-09T05:46:21.265Z,65.91
2023-05-09T05:48:48.043Z,66.64
2023-05-09T05:51:14.728Z,66.88
2023-05-09T05:53:42.255Z,67.22
2023-05-09T05:56:09.672Z,67.67
2023-05-09T05:58:36.396Z,67.07
2023-05-09T06:01:04.348Z,67.21
2023-05-09T06:03:31.995Z,67.27
2023-05-09T06:06:05.519Z,67.80
2023-05-09T06:08:32.407Z,67.79
2023-05-09T06:11:00.993Z,67.57
2023-05-09T06:13:27.629Z,66.69
2023-05-09T06:16:15.205Z,66.93
2023-05-09T06:18:48.058Z,67.05
2023-05-09T06:21:14.598Z,67.23
2023-05-09T06:23:51.038Z,67.39
2023-05-09T06:26:27.725Z,67.59
2023-05-09T06:28:54.286Z,67.11
2023-05-09T06:31:21.908Z,67.95
2023-05-09T06:33:48.500Z,67.57
2023-05-09T06:36:15.051Z,66.40
2023-05-09T06:38:41.713Z,67.03
2023-05-09T06:41:08.277Z,67.30
2023-05-09T06:43:34.979Z,67.02
2023-05-09T06:46:02.471Z,67.38
2023-05-09T06:48:28.958Z,67.77
2023-05-09T06:50:55.648Z,67.41
2023-05-09T06:53:22.464Z,67.82
2023-05-09T06:55:49.063Z,68.33
2023-05-09T06:58:15.673Z,67.83
2023-05-09T07:00:42.193Z,67.96
2023-05-09T07:03:09.051Z,67.87
2023-05-09T07:05:35.906Z,68.01
2023-05-09T07:08:02.422Z,67.54
2023-05-09T07:10:29.183Z,66.88
2023-05-09T07:12:55.826Z,66.65
2023-05-09T07:15:36.796Z,65.85
2023-05-09T07:18:08.024Z,66.86
2023-05-09T07:20:34.619Z,66.80
2023-05-09T07:23:03.819Z,66.37
2023-05-09T07:25:30.411Z,65.94
2023-05-09T07:27:58.096Z,65.42
2023-05-09T07:30:25.097Z,65.21
2023-05-09T07:32:51.960Z,64.46
2023-05-09T07:35:19.682Z,64.34
2023-05-09T07:37:46.596Z,64.43
2023-05-09T07:40:13.825Z,64.59
2023-05-09T07:42:40.694Z,64.09
2023-05-09T07:45:07.733Z,64.00
2023-05-09T07:47:34.356Z,63.26
2023-05-09T07:50:01.199Z,63.44
2023-05-09T07:52:28.203Z,62.82
2023-05-09T07:54:58.211Z,64.59
2023-05-09T07:57:24.717Z,63.31
2023-05-09T07:59:51.361Z,63.98
2023-05-09T08:02:17.884Z,63.26
2023-05-09T08:04:44.576Z,62.06
2023-05-09T08:07:11.831Z,63.71
2023-05-09T08:09:38.564Z,64.59
2023-05-09T08:12:05.962Z,63.99
2023-05-09T08:14:32.708Z,63.03
2023-05-09T08:16:59.267Z,63.48
2023-05-09T08:19:26.272Z,63.27
2023-05-09T08:21:53.251Z,62.97
2023-05-09T08:24:20.189Z,63.69
2023-05-09T08:26:46.977Z,62.83
2023-05-09T08:29:13.598Z,64.03
2023-05-09T08:31:40.732Z,62.97
2023-05-09T08:34:07.325Z,63.73
2023-05-09T08:36:33.940Z,63.94
2023-05-09T08:39:00.673Z,61.76
2023-05-09T08:41:28.034Z,61.51
2023-05-09T08:43:55.663Z,60.67
2023-05-09T08:46:30.870Z,59.92
2023-05-09T08:48:58.011Z,59.76
2023-05-09T08:51:24.742Z,58.98
2023-05-09T08:53:51.973Z,58.54
2023-05-09T08:56:18.877Z,58.44
2023-05-09T08:58:45.502Z,57.91
2023-05-09T09:01:14.105Z,58.36
2023-05-09T09:03:47.437Z,56.87
2023-05-09T09:06:14.309Z,56.71
2023-05-09T09:08:41.675Z,56.82
2023-05-09T09:11:11.832Z,57.38
2023-05-09T09:13:40.689Z,57.96
2023-05-09T09:16:20.590Z,56.90
2023-05-09T09:18:47.566Z,57.00
2023-05-09T09:21:19.007Z,56.24
2023-05-09T09:23:47.484Z,56.64
2023-05-09T09:26:14.288Z,56.62
2023-05-09T09:28:42.005Z,56.48
2023-05-09T09:31:26.005Z,55.51
2023-05-09T09:33:58.797Z,55.81
2023-05-09T09:36:29.914Z,55.18
2023-05-09T09:39:00.426Z,55.41
2023-05-09T09:41:45.340Z,55.41
2023-05-09T09:44:17.188Z,54.65
2023-05-09T09:46:46.214Z,53.67
2023-05-09T09:49:14.103Z,52.75
2023-05-09T09:51:41.721Z,51.41
2023-05-09T09:54:09.800Z,51.83
2023-05-09T09:56:43.901Z,50.78
2023-05-09T09:59:13.607Z,51.31
2023-05-09T10:02:07.555Z,50.13
2023-05-09T10:04:37.122Z,49.76
2023-05-09T10:07:06.236Z,49.84
2023-05-09T10:09:35.352Z,49.31
2023-05-09T10:12:06.101Z,51.04
2023-05-09T10:14:35.475Z,50.21
2023-05-09T10:17:04.805Z,49.78
2023-05-09T10:19:33.104Z,49.42
2023-05-09T10:22:08.169Z,48.41
2023-05-09T10:24:47.133Z,48.72
2023-05-09T10:27:17.851Z,48.31
2023-05-09T10:29:46.301Z,49.30
2023-05-09T10:32:32.188Z,49.83
2023-05-09T10:35:04.602Z,49.20
2023-05-09T10:37:33.342Z,49.45
2023-05-09T10:40:04.289Z,48.35
2023-05-09T10:42:31.904Z,48.60
2023-05-09T10:44:59.014Z,49.97
2023-05-09T10:47:27.908Z,49.67
2023-05-09T10:49:55.037Z,49.03
2023-05-09T10:52:22.687Z,47.97
2023-05-09T10:55:03.448Z,48.33
2023-05-09T10:57:31.427Z,49.56
2023-05-09T11:00:00.047Z,49.48
2023-05-09T11:02:29.565Z,49.27
2023-05-09T11:05:15.227Z,49.48
2023-05-09T11:07:43.282Z,49.33
2023-05-09T11:10:15.512Z,49.13
2023-05-09T11:12:57.771Z,49.22
2023-05-09T11:15:26.436Z,49.09
2023-05-09T11:18:11.761Z,48.29
2023-05-09T11:20:48.167Z,48.17
2023-05-09T11:23:23.174Z,48.21
2023-05-09T11:25:49.768Z,48.58
2023-05-09T11:28:31.997Z,47.34
2023-05-09T11:31:13.462Z,48.49
2023-05-09T11:33:41.665Z,47.18
2023-05-09T11:36:42.640Z,47.89
2023-05-09T11:39:10.516Z,48.07
2023-05-09T11:41:48.763Z,48.22
2023-05-09T11:44:16.996Z,47.66
2023-05-09T11:46:44.665Z,48.40
2023-05-09T11:49:12.415Z,48.18
2023-05-09T11:51:39.474Z,48.46
2023-05-09T11:54:07.743Z,48.53
2023-05-09T11:56:35.632Z,48.50
2023-05-09T11:59:02.670Z,48.22
2023-05-09T12:01:32.272Z,48.13
2023-05-09T12:03:59.297Z,47.86
2023-05-09T12:06:26.239Z,45.89
2023-05-09T12:08:55.528Z,47.09
2023-05-09T12:11:22.037Z,47.48
2023-05-09T12:13:50.251Z,47.54
2023-05-09T12:16:18.436Z,47.70
2023-05-09T12:18:50.050Z,47.70
2023-05-09T12:21:17.661Z,47.40
2023-05-09T12:23:49.777Z,46.94
2023-05-09T12:26:17.606Z,47.17
2023-05-09T12:28:44.338Z,47.74
2023-05-09T12:31:11.650Z,47.06
2023-05-09T12:33:38.752Z,47.88
2023-05-09T12:36:12.619Z,47.49
2023-05-09T12:38:39.900Z,47.46
2023-05-09T12:41:15.421Z,46.77
2023-05-09T12:43:49.807Z,47.20
2023-05-09T12:46:20.491Z,47.06
2023-05-09T12:48:49.236Z,45.46
2023-05-09T12:51:20.591Z,44.82
2023-05-09T12:53:47.708Z,44.90
2023-05-09T12:56:16.480Z,45.77
2023-05-09T12:58:54.094Z,44.37
2023-05-09T13:01:23.161Z,43.77
2023-05-09T13:04:00.242Z,44.32
2023-05-09T13:06:26.822Z,44.00
2023-05-09T13:09:02.196Z,44.17
2023-05-09T13:11:29.202Z,44.61
2023-05-09T13:13:55.984Z,44.66
2023-05-09T13:16:23.046Z,44.39
2023-05-09T13:18:49.633Z,43.93
2023-05-09T13:21:16.284Z,43.96
2023-05-09T13:23:44.381Z,45.05
2023-05-09T13:26:10.981Z,44.05
2023-05-09T13:28:37.583Z,43.83
2023-05-09T13:31:04.230Z,44.23
2023-05-09T13:33:31.003Z,43.58
2023-05-09T13:35:57.562Z,44.29
2023-05-09T13:38:24.307Z,43.92
2023-05-09T13:40:51.467Z,43.99
2023-05-09T13:43:18.025Z,42.77
2023-05-09T13:45:44.669Z,43.34
2023-05-09T13:48:11.757Z,42.93
2023-05-09T13:50:38.366Z,43.04
2023-05-09T13:53:04.842Z,42.68
2023-05-09T13:55:31.425Z,43.64
2023-05-09T13:57:58.170Z,43.28
2023-05-09T14:00:26.509Z,43.03
2023-05-09T14:02:53.172Z,43.79
2023-05-09T14:05:20.086Z,43.64
2023-05-09T14:07:47.435Z,45.47
2023-05-09T14:10:14.392Z,50.39
2023-05-09T14:12:44.281Z,52.11
2023-05-09T14:15:11.608Z,53.90
2023-05-09T14:17:39.749Z,55.23
2023-05-09T14:20:07.369Z,56.19
2023-05-09T14:22:34.076Z,56.95
2023-05-09T14:25:00.822Z,56.42
2023-05-09T14:27:27.597Z,56.83
2023-05-09T14:29:54.287Z,56.31
2023-05-09T14:32:20.978Z,57.02
2023-05-09T14:34:49.611Z,57.86
2023-05-09T14:37:16.848Z,57.96
2023-05-09T14:39:45.242Z,58.43
2023-05-09T14:42:14.019Z,58.71
2023-05-09T14:44:41.784Z,59.08
2023-05-09T14:47:09.642Z,59.30
2023-05-09T14:49:39.711Z,58.62
2023-05-09T14:52:06.507Z,60.81
2023-05-09T14:54:33.133Z,60.61
2023-05-09T14:57:01.830Z,61.97
2023-05-09T14:59:28.508Z,62.63
2023-05-09T15:01:55.268Z,64.69
2023-05-09T15:04:22.016Z,64.31
2023-05-09T15:06:48.763Z,65.36
2023-05-09T15:09:15.507Z,64.12
2023-05-09T15:11:48.337Z,63.15
2023-05-09T15:14:16.824Z,63.22
2023-05-09T15:16:43.839Z,63.74
2023-05-09T15:19:10.616Z,63.23
2023-05-09T15:21:37.339Z,63.76
2023-05-09T15:24:04.832Z,63.60
2023-05-09T15:26:32.110Z,62.71
2023-05-09T15:28:58.933Z,63.59
2023-05-09T15:31:25.923Z,63.36
2023-05-09T15:33:52.778Z,63.07
2023-05-09T15:36:19.295Z,62.89
2023-05-09T15:38:49.194Z,62.50
2023-05-09T15:41:16.882Z,63.22
2023-05-09T15:43:44.087Z,65.22
2023-05-09T15:46:14.376Z,66.11
2023-05-09T15:48:40.940Z,65.91
2023-05-09T15:51:09.376Z,66.20
2023-05-09T15:53:36.383Z,64.65
2023-05-09T15:56:03.576Z,65.74
2023-05-09T15:58:30.750Z,65.19
2023-05-09T16:00:57.280Z,65.66
2023-05-09T16:03:24.822Z,66.87
2023-05-09T16:05:52.327Z,67.60
2023-05-09T16:08:18.969Z,68.53
2023-05-09T16:10:48.838Z,69.16
2023-05-09T16:13:18.048Z,68.44
2023-05-09T16:15:45.309Z,68.78
2023-05-09T16:18:12.084Z,69.30
2023-05-09T16:20:38.690Z,71.74
2023-05-09T16:23:05.471Z,73.35
2023-05-09T16:25:33.887Z,76.06
2023-05-09T16:28:02.074Z,77.69
2023-05-09T16:30:28.795Z,80.29
2023-05-09T16:32:55.405Z,95.38
2023-05-09T16:35:21.971Z,85.35
2023-05-09T16:37:48.563Z,88.90
2023-05-09T16:40:15.324Z,87.86
2023-05-09T16:42:42.958Z,86.09
2023-05-09T16:45:09.902Z,88.50
2023-05-09T16:47:36.878Z,87.97
2023-05-09T16:50:04.569Z,88.05
2023-05-09T16:52:31.317Z,88.15
2023-05-09T16:54:59.277Z,88.81
2023-05-09T16:57:26.236Z,89.38
2023-05-09T16:59:53.373Z,89.39
2023-05-09T17:02:19.992Z,88.97
2023-05-09T17:04:46.657Z,89.04
2023-05-09T17:07:14.361Z,89.25
2023-05-09T17:09:41.279Z,90.88
2023-05-09T17:12:10.704Z,90.47
2023-05-09T17:14:37.202Z,91.44
2023-05-09T17:17:03.773Z,94.53
2023-05-09T17:19:30.389Z,96.92
2023-05-09T17:21:58.747Z,97.03
2023-05-09T17:24:25.214Z,100.00
2023-05-09T17:26:51.980Z,100.00
2023-05-09T17:29:18.492Z,100.00
2023-05-09T17:31:45.030Z,100.00
2023-05-09T17:34:11.708Z,100.00
2023-05-09T17:36:38.229Z,100.00
2023-05-09T17:39:04.898Z,100.00
2023-05-09T17:41:31.426Z,100.00
2023-05-09T17:43:57.976Z,100.00
2023-05-09T17:46:24.869Z,100.00
2023-05-09T17:48:51.713Z,100.00
2023-05-09T17:51:18.317Z,100.00
2023-05-09T17:53:44.910Z,100.00
2023-05-09T17:56:11.514Z,100.00
2023-05-09T17:58:38.148Z,100.00
2023-05-09T18:01:05.312Z,100.00
2023-05-09T18:03:32.205Z,100.00
2023-05-09T18:06:00.229Z,100.00
2023-05-09T18:08:27.031Z,100.00
2023-05-09T18:10:56.669Z,100.00
2023-05-09T18:13:23.325Z,100.00
2023-05-09T18:15:49.969Z,100.00
2023-05-09T18:18:16.543Z,100.00
2023-05-09T18:20:46.122Z,100.00
2023-05-09T18:23:14.380Z,100.00
2023-05-09T18:25:41.794Z,100.00
2023-05-09T18:28:08.360Z,100.00
2023-05-09T18:30:36.083Z,100.00
2023-05-09T18:33:02.955Z,100.00
2023-05-09T18:35:29.784Z,100.00
2023-05-09T18:37:56.646Z,100.00
2023-05-09T18:40:23.424Z,100.00
2023-05-09T18:42:49.965Z,100.00
2023-05-09T18:45:16.519Z,100.00
2023-05-09T18:47:43.123Z,100.00
2023-05-09T18:50:10.795Z,100.00
2023-05-09T18:52:37.416Z,100.00
2023-05-09T18:55:05.742Z,100.00
2023-05-09T18:57:33.781Z,100.00
2023-05-09T19:00:00.434Z,100.00
2023-05-09T19:02:26.960Z,100.00
2023-05-09T19:04:53.714Z,100.00
2023-05-09T19:07:20.298Z,100.00
2023-05-09T19:09:46.911Z,100.00
2023-05-09T19:12:13.483Z,100.00
2023-05-09T19:14:40.091Z,100.00
2023-05-09T19:17:07.704Z,100.00
2023-05-09T19:19:34.399Z,100.00
2023-05-09T19:22:01.579Z,100.00
2023-05-09T19:24:28.169Z,100.00
2023-05-09T19:26:54.669Z,100.00
2023-05-09T19:29:21.198Z,100.00
2023-05-09T19:31:47.668Z,100.00
2023-05-09T19:34:14.283Z,100.00
2023-05-09T19:36:40.931Z,100.00
2023-05-09T19:39:08.857Z,100.00
2023-05-09T19:41:35.868Z,100.00
2023-05-09T19:44:02.537Z,100.00
2023-05-09T19:46:29.135Z,100.00
2023-05-09T19:48:55.780Z,100.00
2023-05-09T19:51:22.304Z,100.00
2023-05-09T19:53:48.871Z,100.00
2023-05-09T19:56:15.524Z,100.00
2023-05-09T19:58:42.270Z,100.00
2023-05-09T20:01:08.907Z,100.00
2023-05-09T20:03:36.828Z,100.00
2023-05-09T20:06:03.954Z,100.00
2023-05-09T20:08:31.025Z,100.00
2023-05-09T20:10:57.548Z,100.00
2023-05-09T20:13:24.280Z,100.00
2023-05-09T20:15:51.085Z,100.00
2023-05-09T20:18:18.425Z,100.00
2023-05-09T20:20:44.977Z,100.00
2023-05-09T20:23:11.607Z,100.00
2023-05-09T20:25:38.087Z,100.00
2023-05-09T20:28:04.716Z,100.00
2023-05-09T20:30:31.353Z,100.00
2023-05-09T20:32:58.556Z,100.00
2023-05-09T20:35:25.430Z,100.00
2023-05-09T20:37:51.980Z,100.00
2023-05-09T20:40:18.882Z,100.00
2023-05-09T20:42:45.435Z,100.00
2023-05-09T20:45:11.944Z,100.00
2023-05-09T20:47:39.595Z,100.00
2023-05-09T20:50:06.951Z,100.00
2023-05-09T20:52:33.483Z,100.00
2023-05-09T20:55:00.076Z,100.00
2023-05-09T20:57:26.633Z,100.00
2023-05-09T20:59:53.360Z,100.00
2023-05-09T21:02:20.037Z,100.00
2023-05-09T21:04:46.600Z,100.00
2023-05-09T21:07:13.349Z,100.00
2023-05-09T21:09:39.958Z,100.00
2023-05-09T21:12:07.410Z,100.00
2023-05-09T21:14:35.480Z,100.00
2023-05-09T21:17:02.105Z,100.00
2023-05-09T21:19:28.687Z,100.00
2023-05-09T21:21:55.293Z,100.00
2023-05-09T21:24:21.836Z,100.00
2023-05-09T21:26:48.371Z,100.00
2023-05-09T21:29:14.876Z,100.00
2023-05-09T21:31:41.560Z,100.00
2023-05-09T21:34:10.285Z,100.00
2023-05-09T21:36:40.761Z,100.00
2023-05-09T21:39:11.700Z,100.00
2023-05-09T21:41:39.932Z,100.00
2023-05-09T21:44:07.679Z,100.00
2023-05-09T21:46:34.978Z,100.00
2023-05-09T21:49:01.681Z,100.00
2023-05-09T21:51:28.971Z,100.00
2023-05-09T21:53:55.661Z,100.00
2023-05-09T21:56:23.035Z,100.00
2023-05-09T21:58:49.972Z,100.00
2023-05-09T22:01:18.603Z,100.00
2023-05-09T22:03:45.633Z,100.00
2023-05-09T22:06:13.378Z,100.00
2023-05-09T22:08:40.053Z,100.00
2023-05-09T22:11:07.617Z,100.00
2023-05-09T22:13:35.769Z,100.00
2023-05-09T22:16:03.734Z,100.00
2023-05-09T22:18:31.224Z,100.00
2023-05-09T22:20:57.852Z,100.00
2023-05-09T22:23:24.439Z,100.00
2023-05-09T22:25:51.058Z,100.00
2023-05-09T22:28:17.765Z,100.00
2023-05-09T22:30:44.456Z,100.00
2023-05-09T22:33:11.240Z,100.00
2023-05-09T22:35:37.903Z,100.00
2023-05-09T22:38:04.403Z,100.00
2023-05-09T22:40:31.013Z,100.00
2023-05-09T22:42:57.562Z,100.00
2023-05-09T22:45:24.110Z,100.00
2023-05-09T22:47:50.661Z,100.00
2023-05-09T22:50:17.735Z,100.00
2023-05-09T22:52:44.580Z,100.00
2023-05-09T22:55:11.351Z,100.00
2023-05-09T22:57:37.874Z,100.00
2023-05-09T23:00:04.919Z,100.00
2023-05-09T23:02:31.509Z,100.00
2023-05-09T23:04:58.198Z,100.00
2023-05-09T23:07:24.697Z,100.00
2023-05-09T23:09:51.422Z,100.00
2023-05-09T23:12:17.990Z,100.00
2023-05-09T23:14:44.816Z,100.00
2023-05-09T23:17:11.751Z,100.00
2023-05-09T23:19:38.395Z,100.00
2023-05-09T23:22:05.029Z,99.01
2023-05-09T23:24:31.642Z,98.84
2023-05-09T23:26:58.253Z,98.88
2023-05-09T23:29:25.151Z,97.90
2023-05-09T23:31:51.766Z,97.65
2023-05-09T23:34:18.372Z,97.15
2023-05-09T23:36:44.968Z,96.75
2023-05-09T23:39:11.968Z,96.82
2023-05-09T23:41:38.472Z,95.45
2023-05-09T23:44:07.036Z,98.34
2023-05-09T23:46:33.618Z,97.53
2023-05-09T23:49:00.320Z,96.48
2023-05-09T23:51:26.920Z,97.23
2023-05-09T23:53:53.518Z,98.03
2023-05-09T23:56:21.093Z,98.38
2023-05-09T23:58:47.717Z,97.56
